sensor_id;sensor_type;location;lat;lon;timestamp;pressure;altitude;pressure_sealevel;temperature
64600;BMP280;6553;48.412;9.514;2022-10-16T00:02:06;71571.25;;;18.95
64600;BMP280;6553;48.412;9.514;2022-10-16T00:04:31;71566.38;;;18.93
64600;BMP280;6553;48.412;9.514;2022-10-16T00:06:57;71565.72;;;18.95
64600;BMP280;6553;48.412;9.514;2022-10-16T00:09:23;71565.72;;;18.95
64600;BMP280;6553;48.412;9.514;2022-10-16T00:11:48;71564.66;;;18.94
64600;BMP280;6553;48.412;9.514;2022-10-16T00:14:15;71571.25;;;18.95
64600;BMP280;6553;48.412;9.514;2022-10-16T00:16:41;71575.63;;;18.96
64600;BMP280;6553;48.412;9.514;2022-10-16T00:19:08;71562.97;;;18.95
64600;BMP280;6553;48.412;9.514;2022-10-16T00:21:34;71567.41;;;18.94
64600;BMP280;6553;48.412;9.514;2022-10-16T00:24:07;71567.97;;;18.94
64600;BMP280;6553;48.412;9.514;2022-10-16T00:26:36;71569.03;;;18.95
64600;BMP280;6553;48.412;9.514;2022-10-16T00:29:03;71564.66;;;18.94
64600;BMP280;6553;48.412;9.514;2022-10-16T00:31:29;71564.66;;;18.94
64600;BMP280;6553;48.412;9.514;2022-10-16T00:33:56;71570.72;;;18.94
64600;BMP280;6553;48.412;9.514;2022-10-16T00:36:24;71563.59;;;18.93
64600;BMP280;6553;48.412;9.514;2022-10-16T00:38:55;71572.88;;;18.96
64600;BMP280;6553;48.412;9.514;2022-10-16T00:41:25;71567.97;;;18.94
64600;BMP280;6553;48.412;9.514;2022-10-16T00:43:57;71571.25;;;18.95
64600;BMP280;6553;48.412;9.514;2022-10-16T00:46:43;71570.19;;;18.94
64600;BMP280;6553;48.412;9.514;2022-10-16T00:49:18;71566.38;;;18.93
64600;BMP280;6553;48.412;9.514;2022-10-16T00:51:49;71571.91;;;18.93
64600;BMP280;6553;48.412;9.514;2022-10-16T00:54:21;71561.47;;;18.91
64600;BMP280;6553;48.412;9.514;2022-10-16T00:56:49;71567.41;;;18.94
64600;BMP280;6553;48.412;9.514;2022-10-16T00:59:37;71567.41;;;18.94
64600;BMP280;6553;48.412;9.514;2022-10-16T01:02:05;71560.84;;;18.93
64600;BMP280;6553;48.412;9.514;2022-10-16T01:04:45;71560.84;;;18.93
64600;BMP280;6553;48.412;9.514;2022-10-16T01:10:44;71566.88;;;18.93
64600;BMP280;6553;48.412;9.514;2022-10-16T01:13:29;71567.97;;;18.94
64600;BMP280;6553;48.412;9.514;2022-10-16T01:20:29;71565.19;;;18.94
64600;BMP280;6553;48.412;9.514;2022-10-16T01:22:34;71569.78;;;18.91
64600;BMP280;6553;48.412;9.514;2022-10-16T01:25:11;71568.59;;;18.92
64600;BMP280;6553;48.412;9.514;2022-10-16T01:27:42;71562.03;;;18.91
64600;BMP280;6553;48.412;9.514;2022-10-16T01:30:26;71562.03;;;18.91
64600;BMP280;6553;48.412;9.514;2022-10-16T01:33:05;71565.31;;;18.92
64600;BMP280;6553;48.412;9.514;2022-10-16T01:35:43;71567.97;;;18.94
64600;BMP280;6553;48.412;9.514;2022-10-16T01:38:31;71570.19;;;18.94
64600;BMP280;6553;48.412;9.514;2022-10-16T01:43:49;71565.31;;;18.92
64600;BMP280;6553;48.412;9.514;2022-10-16T01:46:20;71564.13;;;18.93
64600;BMP280;6553;48.412;9.514;2022-10-16T01:48:49;71567.53;;;18.91
64600;BMP280;6553;48.412;9.514;2022-10-16T01:51:18;71562.56;;;18.92
64600;BMP280;6553;48.412;9.514;2022-10-16T01:53:50;71568.09;;;18.92
64600;BMP280;6553;48.412;9.514;2022-10-16T01:56:20;71565.31;;;18.92
64600;BMP280;6553;48.412;9.514;2022-10-16T01:59:09;71565.31;;;18.92
64600;BMP280;6553;48.412;9.514;2022-10-16T02:01:39;71566.38;;;18.93
64600;BMP280;6553;48.412;9.514;2022-10-16T02:04:25;71565.31;;;18.92
64600;BMP280;6553;48.412;9.514;2022-10-16T02:06:53;71567.53;;;18.91
64600;BMP280;6553;48.412;9.514;2022-10-16T02:09:19;71563.81;;;18.88
64600;BMP280;6553;48.412;9.514;2022-10-16T02:11:45;71562.56;;;18.92
64600;BMP280;6553;48.412;9.514;2022-10-16T02:14:11;71557.66;;;18.90
64600;BMP280;6553;48.412;9.514;2022-10-16T02:16:41;71565.31;;;18.92
64600;BMP280;6553;48.412;9.514;2022-10-16T02:19:16;71563.19;;;18.90
64600;BMP280;6553;48.412;9.514;2022-10-16T02:22:00;71558.72;;;18.91
64600;BMP280;6553;48.412;9.514;2022-10-16T02:24:41;71563.19;;;18.90
64600;BMP280;6553;48.412;9.514;2022-10-16T02:27:22;71564.78;;;18.91
64600;BMP280;6553;48.412;9.514;2022-10-16T02:29:59;71560.00;;;18.87
64600;BMP280;6553;48.412;9.514;2022-10-16T02:32:31;71563.72;;;18.90
64600;BMP280;6553;48.412;9.514;2022-10-16T02:34:58;71560.44;;;18.90
64600;BMP280;6553;48.412;9.514;2022-10-16T02:37:27;71560.44;;;18.90
64600;BMP280;6553;48.412;9.514;2022-10-16T02:39:56;71564.25;;;18.91
64600;BMP280;6553;48.412;9.514;2022-10-16T02:42:38;71563.06;;;18.92
64600;BMP280;6553;48.412;9.514;2022-10-16T02:45:07;71568.09;;;18.92
64600;BMP280;6553;48.412;9.514;2022-10-16T02:47:34;71564.34;;;18.88
64600;BMP280;6553;48.412;9.514;2022-10-16T02:49:59;71564.34;;;18.88
64600;BMP280;6553;48.412;9.514;2022-10-16T02:52:25;71561.06;;;18.88
64600;BMP280;6553;48.412;9.514;2022-10-16T02:54:51;71557.66;;;18.90
64600;BMP280;6553;48.412;9.514;2022-10-16T02:57:18;71557.66;;;18.90
64600;BMP280;6553;48.412;9.514;2022-10-16T02:59:44;71565.53;;;18.87
64600;BMP280;6553;48.412;9.514;2022-10-16T03:02:10;71562.03;;;18.91
64600;BMP280;6553;48.412;9.514;2022-10-16T03:04:36;71562.75;;;18.87
64600;BMP280;6553;48.412;9.514;2022-10-16T03:07:03;71567.00;;;18.91
64600;BMP280;6553;48.412;9.514;2022-10-16T03:09:28;71563.72;;;18.90
64600;BMP280;6553;48.412;9.514;2022-10-16T03:11:54;71563.72;;;18.90
64600;BMP280;6553;48.412;9.514;2022-10-16T03:14:20;71564.25;;;18.91
64600;BMP280;6553;48.412;9.514;2022-10-16T03:16:45;71565.97;;;18.90
64600;BMP280;6553;48.412;9.514;2022-10-16T03:19:11;71565.97;;;18.90
64600;BMP280;6553;48.412;9.514;2022-10-16T03:21:37;71562.13;;;18.89
64600;BMP280;6553;48.412;9.514;2022-10-16T03:24:03;71563.19;;;18.90
64600;BMP280;6553;48.412;9.514;2022-10-16T03:26:29;71563.19;;;18.90
64600;BMP280;6553;48.412;9.514;2022-10-16T03:28:55;71560.53;;;18.87
64600;BMP280;6553;48.412;9.514;2022-10-16T03:31:20;71562.25;;;18.86
64600;BMP280;6553;48.412;9.514;2022-10-16T03:33:46;71560.00;;;18.87
64600;BMP280;6553;48.412;9.514;2022-10-16T03:36:12;71565.53;;;18.87
64600;BMP280;6553;48.412;9.514;2022-10-16T03:38:38;71562.13;;;18.89
64600;BMP280;6553;48.412;9.514;2022-10-16T03:41:04;71559.34;;;18.89
64600;BMP280;6553;48.412;9.514;2022-10-16T03:43:29;71559.34;;;18.89
64600;BMP280;6553;48.412;9.514;2022-10-16T03:45:55;71561.06;;;18.88
64600;BMP280;6553;48.412;9.514;2022-10-16T03:48:21;71562.13;;;18.89
64600;BMP280;6553;48.412;9.514;2022-10-16T03:50:47;71561.06;;;18.88
64600;BMP280;6553;48.412;9.514;2022-10-16T03:53:15;71561.06;;;18.88
64600;BMP280;6553;48.412;9.514;2022-10-16T03:55:44;71565.97;;;18.90
64600;BMP280;6553;48.412;9.514;2022-10-16T03:58:11;71565.97;;;18.90
64600;BMP280;6553;48.412;9.514;2022-10-16T04:00:44;71563.19;;;18.90
64600;BMP280;6553;48.412;9.514;2022-10-16T04:03:11;71565.97;;;18.90
64600;BMP280;6553;48.412;9.514;2022-10-16T04:05:38;71565.97;;;18.90
64600;BMP280;6553;48.412;9.514;2022-10-16T04:08:04;71565.41;;;18.89
64600;BMP280;6553;48.412;9.514;2022-10-16T04:10:30;71562.75;;;18.87
64600;BMP280;6553;48.412;9.514;2022-10-16T04:12:55;71556.72;;;18.86
64600;BMP280;6553;48.412;9.514;2022-10-16T04:15:25;71560.00;;;18.87
64600;BMP280;6553;48.412;9.514;2022-10-16T04:17:52;71562.13;;;18.89
64600;BMP280;6553;48.412;9.514;2022-10-16T04:20:18;71557.78;;;18.87
64600;BMP280;6553;48.412;9.514;2022-10-16T04:22:45;71556.19;;;18.86
64600;BMP280;6553;48.412;9.514;2022-10-16T04:25:11;71560.53;;;18.87
64600;BMP280;6553;48.412;9.514;2022-10-16T04:27:38;71565.09;;;18.84
64600;BMP280;6553;48.412;9.514;2022-10-16T04:30:04;71561.19;;;18.85
64600;BMP280;6553;48.412;9.514;2022-10-16T04:32:30;71559.56;;;18.84
64600;BMP280;6553;48.412;9.514;2022-10-16T04:34:56;71563.31;;;18.87
64600;BMP280;6553;48.412;9.514;2022-10-16T04:37:27;71561.06;;;18.88
64600;BMP280;6553;48.412;9.514;2022-10-16T04:39:55;71560.00;;;18.87
64600;BMP280;6553;48.412;9.514;2022-10-16T04:42:21;71557.22;;;18.87
64600;BMP280;6553;48.412;9.514;2022-10-16T04:44:47;71563.81;;;18.88
64600;BMP280;6553;48.412;9.514;2022-10-16T04:47:13;71558.94;;;18.86
64600;BMP280;6553;48.412;9.514;2022-10-16T04:49:39;71559.47;;;18.86
64600;BMP280;6553;48.412;9.514;2022-10-16T04:52:05;71559.47;;;18.86
64600;BMP280;6553;48.412;9.514;2022-10-16T04:54:31;71558.94;;;18.86
64600;BMP280;6553;48.412;9.514;2022-10-16T04:56:57;71561.72;;;18.86
64600;BMP280;6553;48.412;9.514;2022-10-16T04:59:23;71560.00;;;18.87
64600;BMP280;6553;48.412;9.514;2022-10-16T05:01:49;71560.53;;;18.87
64600;BMP280;6553;48.412;9.514;2022-10-16T05:04:15;71558.94;;;18.86
64600;BMP280;6553;48.412;9.514;2022-10-16T05:06:42;71556.19;;;18.86
64600;BMP280;6553;48.412;9.514;2022-10-16T05:09:08;71558.94;;;18.86
64600;BMP280;6553;48.412;9.514;2022-10-16T05:11:35;71560.00;;;18.87
64600;BMP280;6553;48.412;9.514;2022-10-16T05:14:01;71560.00;;;18.87
64600;BMP280;6553;48.412;9.514;2022-10-16T05:16:27;71559.47;;;18.86
64600;BMP280;6553;48.412;9.514;2022-10-16T05:18:53;71557.34;;;18.84
64600;BMP280;6553;48.412;9.514;2022-10-16T05:21:20;71561.72;;;18.86
64600;BMP280;6553;48.412;9.514;2022-10-16T05:23:45;71558.94;;;18.86
64600;BMP280;6553;48.412;9.514;2022-10-16T05:26:11;71558.94;;;18.86
64600;BMP280;6553;48.412;9.514;2022-10-16T05:28:37;71562.34;;;18.84
64600;BMP280;6553;48.412;9.514;2022-10-16T05:31:08;71562.34;;;18.84
64600;BMP280;6553;48.412;9.514;2022-10-16T05:33:35;71560.63;;;18.85
64600;BMP280;6553;48.412;9.514;2022-10-16T05:36:06;71556.28;;;18.83
64600;BMP280;6553;48.412;9.514;2022-10-16T05:38:34;71557.88;;;18.85
64600;BMP280;6553;48.412;9.514;2022-10-16T05:41:00;71556.72;;;18.86
64600;BMP280;6553;48.412;9.514;2022-10-16T05:43:28;71564.47;;;18.86
64600;BMP280;6553;48.412;9.514;2022-10-16T05:46:03;71555.78;;;18.83
64600;BMP280;6553;48.412;9.514;2022-10-16T05:48:30;71561.72;;;18.86
64600;BMP280;6553;48.412;9.514;2022-10-16T05:51:02;71567.78;;;18.86
64600;BMP280;6553;48.412;9.514;2022-10-16T05:53:31;71558.94;;;18.86
64600;BMP280;6553;48.412;9.514;2022-10-16T05:55:57;71555.13;;;18.85
64600;BMP280;6553;48.412;9.514;2022-10-16T05:58:24;71560.00;;;18.87
64600;BMP280;6553;48.412;9.514;2022-10-16T06:01:01;71558.94;;;18.86
64600;BMP280;6553;48.412;9.514;2022-10-16T06:03:27;71557.88;;;18.85
64600;BMP280;6553;48.412;9.514;2022-10-16T06:05:53;71557.88;;;18.85
64600;BMP280;6553;48.412;9.514;2022-10-16T06:08:22;71562.25;;;18.86
64600;BMP280;6553;48.412;9.514;2022-10-16T06:10:49;71555.66;;;18.85
64600;BMP280;6553;48.412;9.514;2022-10-16T06:13:25;71558.41;;;18.85
64600;BMP280;6553;48.412;9.514;2022-10-16T06:15:51;71560.63;;;18.85
64600;BMP280;6553;48.412;9.514;2022-10-16T06:18:16;71558.41;;;18.85
64600;BMP280;6553;48.412;9.514;2022-10-16T06:20:42;71559.03;;;18.83
64600;BMP280;6553;48.412;9.514;2022-10-16T06:23:08;71554.56;;;18.84
64600;BMP280;6553;48.412;9.514;2022-10-16T06:25:34;71555.78;;;18.83
64600;BMP280;6553;48.412;9.514;2022-10-16T06:27:59;71558.41;;;18.85
64600;BMP280;6553;48.412;9.514;2022-10-16T06:30:25;71555.78;;;18.83
64600;BMP280;6553;48.412;9.514;2022-10-16T06:32:51;71559.03;;;18.83
64600;BMP280;6553;48.412;9.514;2022-10-16T06:35:16;71551.41;;;18.81
64600;BMP280;6553;48.412;9.514;2022-10-16T06:37:42;71556.81;;;18.84
64600;BMP280;6553;48.412;9.514;2022-10-16T06:40:08;71556.28;;;18.83
64600;BMP280;6553;48.412;9.514;2022-10-16T06:42:34;71556.81;;;18.84
64600;BMP280;6553;48.412;9.514;2022-10-16T06:44:59;71557.34;;;18.84
64600;BMP280;6553;48.412;9.514;2022-10-16T06:47:25;71557.88;;;18.85
64600;BMP280;6553;48.412;9.514;2022-10-16T06:49:51;71554.56;;;18.84
64600;BMP280;6553;48.412;9.514;2022-10-16T06:52:16;71556.81;;;18.84
64600;BMP280;6553;48.412;9.514;2022-10-16T06:54:42;71552.56;;;18.80
64600;BMP280;6553;48.412;9.514;2022-10-16T06:57:08;71550.88;;;18.81
64600;BMP280;6553;48.412;9.514;2022-10-16T06:59:33;71550.88;;;18.81
64600;BMP280;6553;48.412;9.514;2022-10-16T07:01:59;71560.09;;;18.84
64600;BMP280;6553;48.412;9.514;2022-10-16T07:04:25;71559.69;;;18.81
64600;BMP280;6553;48.412;9.514;2022-10-16T07:06:51;71560.09;;;18.84
64600;BMP280;6553;48.412;9.514;2022-10-16T07:09:17;71557.88;;;18.85
64600;BMP280;6553;48.412;9.514;2022-10-16T07:11:43;71557.47;;;18.82
64600;BMP280;6553;48.412;9.514;2022-10-16T07:14:20;71559.03;;;18.83
64600;BMP280;6553;48.412;9.514;2022-10-16T07:16:47;71557.88;;;18.85
64600;BMP280;6553;48.412;9.514;2022-10-16T07:19:14;71557.47;;;18.82
64600;BMP280;6553;48.412;9.514;2022-10-16T07:21:42;71557.34;;;18.84
64600;BMP280;6553;48.412;9.514;2022-10-16T07:24:14;71562.34;;;18.84
64600;BMP280;6553;48.412;9.514;2022-10-16T07:26:45;71562.34;;;18.84
64600;BMP280;6553;48.412;9.514;2022-10-16T07:29:18;71556.81;;;18.84
64600;BMP280;6553;48.412;9.514;2022-10-16T07:31:45;71560.75;;;18.82
64600;BMP280;6553;48.412;9.514;2022-10-16T07:34:13;71554.56;;;18.84
64600;BMP280;6553;48.412;9.514;2022-10-16T07:36:39;71558.53;;;18.83
64600;BMP280;6553;48.412;9.514;2022-10-16T07:39:05;71553.50;;;18.83
64600;BMP280;6553;48.412;9.514;2022-10-16T07:41:32;71553.50;;;18.83
64600;BMP280;6553;48.412;9.514;2022-10-16T07:43:58;71551.81;;;18.84
64600;BMP280;6553;48.412;9.514;2022-10-16T07:46:27;71560.53;;;18.87
64600;BMP280;6553;48.412;9.514;2022-10-16T07:48:53;71562.75;;;18.87
64600;BMP280;6553;48.412;9.514;2022-10-16T07:51:23;71563.81;;;18.88
64600;BMP280;6553;48.412;9.514;2022-10-16T07:53:49;71561.59;;;18.88
64600;BMP280;6553;48.412;9.514;2022-10-16T07:56:17;71565.97;;;18.90
64600;BMP280;6553;48.412;9.514;2022-10-16T07:58:44;71564.78;;;18.91
64600;BMP280;6553;48.412;9.514;2022-10-16T08:01:13;71565.31;;;18.92
64600;BMP280;6553;48.412;9.514;2022-10-16T08:03:45;71567.00;;;18.91
64600;BMP280;6553;48.412;9.514;2022-10-16T08:06:11;71566.47;;;18.90
64600;BMP280;6553;48.412;9.514;2022-10-16T08:08:37;71565.31;;;18.92
64600;BMP280;6553;48.412;9.514;2022-10-16T08:11:03;71564.25;;;18.91
64600;BMP280;6553;48.412;9.514;2022-10-16T08:13:31;71570.31;;;18.91
64600;BMP280;6553;48.412;9.514;2022-10-16T08:15:57;71564.78;;;18.91
64600;BMP280;6553;48.412;9.514;2022-10-16T08:18:23;71568.72;;;18.90
64600;BMP280;6553;48.412;9.514;2022-10-16T08:20:56;71571.91;;;18.93
64600;BMP280;6553;48.412;9.514;2022-10-16T08:23:24;71572.94;;;18.94
64600;BMP280;6553;48.412;9.514;2022-10-16T08:25:52;71571.78;;;18.95
64600;BMP280;6553;48.412;9.514;2022-10-16T08:28:19;71568.50;;;18.95
64600;BMP280;6553;48.412;9.514;2022-10-16T08:30:45;71571.25;;;18.95
64600;BMP280;6553;48.412;9.514;2022-10-16T08:33:11;71566.88;;;18.93
64600;BMP280;6553;48.412;9.514;2022-10-16T08:35:37;71574.56;;;18.95
64600;BMP280;6553;48.412;9.514;2022-10-16T08:38:04;71566.88;;;18.93
64600;BMP280;6553;48.412;9.514;2022-10-16T08:40:33;71570.84;;;18.92
64600;BMP280;6553;48.412;9.514;2022-10-16T08:43:32;71570.09;;;18.96
64600;BMP280;6553;48.412;9.514;2022-10-16T08:48:49;71570.09;;;18.96
64600;BMP280;6553;48.412;9.514;2022-10-16T08:51:28;71574.03;;;18.95
64600;BMP280;6553;48.412;9.514;2022-10-16T08:54:03;71569.03;;;18.95
64600;BMP280;6553;48.412;9.514;2022-10-16T08:56:30;71569.56;;;18.96
64600;BMP280;6553;48.412;9.514;2022-10-16T08:58:58;71573.38;;;18.97
64600;BMP280;6553;48.412;9.514;2022-10-16T09:01:44;71572.75;;;18.99
64600;BMP280;6553;48.412;9.514;2022-10-16T09:04:51;71572.75;;;18.99
64600;BMP280;6553;48.412;9.514;2022-10-16T09:16:19;71569.97;;;18.99
64600;BMP280;6553;48.412;9.514;2022-10-16T09:19:20;71579.34;;;19.00
64600;BMP280;6553;48.412;9.514;2022-10-16T09:21:48;71578.81;;;18.99
64600;BMP280;6553;48.412;9.514;2022-10-16T09:24:21;71578.81;;;18.99
64600;BMP280;6553;48.412;9.514;2022-10-16T09:26:47;71572.09;;;19.01
64600;BMP280;6553;48.412;9.514;2022-10-16T09:29:15;71575.28;;;19.04
64600;BMP280;6553;48.412;9.514;2022-10-16T09:31:43;71579.22;;;19.02
64600;BMP280;6553;48.412;9.514;2022-10-16T09:36:55;71574.22;;;19.03
64600;BMP280;6553;48.412;9.514;2022-10-16T09:39:22;71577.00;;;19.03
64600;BMP280;6553;48.412;9.514;2022-10-16T09:41:48;71575.38;;;19.01
64600;BMP280;6553;48.412;9.514;2022-10-16T09:44:25;71580.81;;;19.04
64600;BMP280;6553;48.412;9.514;2022-10-16T09:47:12;71582.41;;;19.05
64600;BMP280;6553;48.412;9.514;2022-10-16T09:49:50;71581.88;;;19.05
64600;BMP280;6553;48.412;9.514;2022-10-16T09:52:19;71582.94;;;19.06
64600;BMP280;6553;48.412;9.514;2022-10-16T09:54:54;71585.69;;;19.06
64600;BMP280;6553;48.412;9.514;2022-10-16T09:57:21;71585.16;;;19.05
64600;BMP280;6553;48.412;9.514;2022-10-16T09:59:54;71580.69;;;19.06
64600;BMP280;6553;48.412;9.514;2022-10-16T10:02:43;71580.16;;;19.06
64600;BMP280;6553;48.412;9.514;2022-10-16T10:05:24;71585.06;;;19.08
64600;BMP280;6553;48.412;9.514;2022-10-16T10:07:59;71584.00;;;19.07
64600;BMP280;6553;48.412;9.514;2022-10-16T10:10:29;71585.16;;;19.05
64600;BMP280;6553;48.412;9.514;2022-10-16T10:12:56;71580.69;;;19.06
64600;BMP280;6553;48.412;9.514;2022-10-16T10:15:23;71579.13;;;19.05
64600;BMP280;6553;48.412;9.514;2022-10-16T10:17:54;71585.16;;;19.05
64600;BMP280;6553;48.412;9.514;2022-10-16T10:20:33;71582.41;;;19.05
64600;BMP280;6553;48.412;9.514;2022-10-16T10:23:13;71580.69;;;19.06
64600;BMP280;6553;48.412;9.514;2022-10-16T10:26:20;71590.59;;;19.08
64600;BMP280;6553;48.412;9.514;2022-10-16T10:29:00;71584.00;;;19.07
64600;BMP280;6553;48.412;9.514;2022-10-16T10:31:47;71584.00;;;19.07
64600;BMP280;6553;48.412;9.514;2022-10-16T10:34:39;71582.28;;;19.08
64600;BMP280;6553;48.412;9.514;2022-10-16T10:46:04;71587.81;;;19.08
64600;BMP280;6553;48.412;9.514;2022-10-16T10:52:13;71585.06;;;19.08
64600;BMP280;6553;48.412;9.514;2022-10-16T10:57:35;71588.91;;;19.09
64600;BMP280;6553;48.412;9.514;2022-10-16T11:00:26;71583.38;;;19.09
64600;BMP280;6553;48.412;9.514;2022-10-16T11:03:40;71586.78;;;19.07
64600;BMP280;6553;48.412;9.514;2022-10-16T11:06:20;71590.59;;;19.08
64600;BMP280;6553;48.412;9.514;2022-10-16T11:09:15;71582.81;;;19.08
64600;BMP280;6553;48.412;9.514;2022-10-16T11:11:54;71592.19;;;19.09
64600;BMP280;6553;48.412;9.514;2022-10-16T11:15:07;71584.44;;;19.10
64600;BMP280;6553;48.412;9.514;2022-10-16T11:17:38;71588.34;;;19.08
64600;BMP280;6553;48.412;9.514;2022-10-16T11:20:18;71586.66;;;19.09
64600;BMP280;6553;48.412;9.514;2022-10-16T11:22:50;71586.13;;;19.09
64600;BMP280;6553;48.412;9.514;2022-10-16T11:25:30;71584.44;;;19.10
64600;BMP280;6553;48.412;9.514;2022-10-16T11:28:12;71583.38;;;19.09
64600;BMP280;6553;48.412;9.514;2022-10-16T11:30:49;71582.81;;;19.08
64600;BMP280;6553;48.412;9.514;2022-10-16T11:33:32;71582.81;;;19.08
64600;BMP280;6553;48.412;9.514;2022-10-16T11:36:17;71578.38;;;19.09
64600;BMP280;6553;48.412;9.514;2022-10-16T11:38:55;71587.72;;;19.10
64600;BMP280;6553;48.412;9.514;2022-10-16T11:41:28;71591.00;;;19.11
64600;BMP280;6553;48.412;9.514;2022-10-16T11:44:57;71586.53;;;19.12
64600;BMP280;6553;48.412;9.514;2022-10-16T11:47:48;71584.94;;;19.10
64600;BMP280;6553;48.412;9.514;2022-10-16T11:56:17;71586.00;;;19.11
64600;BMP280;6553;48.412;9.514;2022-10-16T11:58:53;71592.06;;;19.12
64600;BMP280;6553;48.412;9.514;2022-10-16T12:01:34;71592.06;;;19.12
64600;BMP280;6553;48.412;9.514;2022-10-16T12:04:26;71586.53;;;19.12
64600;BMP280;6553;48.412;9.514;2022-10-16T12:07:27;71589.84;;;19.12
64600;BMP280;6553;48.412;9.514;2022-10-16T12:09:56;71589.97;;;19.10
64600;BMP280;6553;48.412;9.514;2022-10-16T12:12:39;71586.00;;;19.11
64600;BMP280;6553;48.412;9.514;2022-10-16T12:15:28;71587.59;;;19.13
64600;BMP280;6553;48.412;9.514;2022-10-16T12:17:55;71588.16;;;19.13
64600;BMP280;6553;48.412;9.514;2022-10-16T12:20:33;71590.38;;;19.13
64600;BMP280;6553;48.412;9.514;2022-10-16T12:23:05;71590.38;;;19.13
64600;BMP280;6553;48.412;9.514;2022-10-16T12:25:37;71589.19;;;19.14
64600;BMP280;6553;48.412;9.514;2022-10-16T12:30:42;71591.94;;;19.14
64600;BMP280;6553;48.412;9.514;2022-10-16T12:33:27;71594.22;;;19.14
64600;BMP280;6553;48.412;9.514;2022-10-16T12:35:54;71596.31;;;19.16
64600;BMP280;6553;48.412;9.514;2022-10-16T12:38:27;71593.03;;;19.15
64600;BMP280;6553;48.412;9.514;2022-10-16T12:41:06;71589.72;;;19.15
64600;BMP280;6553;48.412;9.514;2022-10-16T12:43:46;71586.00;;;19.11
64600;BMP280;6553;48.412;9.514;2022-10-16T12:48:41;71594.72;;;19.14
64600;BMP280;6553;48.412;9.514;2022-10-16T12:51:33;71590.78;;;19.16
64600;BMP280;6553;48.412;9.514;2022-10-16T12:59:43;71598.44;;;19.18
64600;BMP280;6553;48.412;9.514;2022-10-16T13:22:04;71595.03;;;19.20
64600;BMP280;6553;48.412;9.514;2022-10-16T13:24:55;71595.56;;;19.20
64600;BMP280;6553;48.412;9.514;2022-10-16T13:27:50;71595.03;;;19.20
64600;BMP280;6553;48.412;9.514;2022-10-16T13:30:25;71597.28;;;19.19
64600;BMP280;6553;48.412;9.514;2022-10-16T13:33:07;71595.56;;;19.20
64600;BMP280;6553;48.412;9.514;2022-10-16T13:35:56;71601.09;;;19.20
64600;BMP280;6553;48.412;9.514;2022-10-16T13:38:33;71601.09;;;19.20
64600;BMP280;6553;48.412;9.514;2022-10-16T13:41:05;71601.66;;;19.21
64600;BMP280;6553;48.412;9.514;2022-10-16T13:43:48;71596.09;;;19.21
64600;BMP280;6553;48.412;9.514;2022-10-16T13:46:21;71595.03;;;19.20
64600;BMP280;6553;48.412;9.514;2022-10-16T13:49:05;71595.03;;;19.20
64600;BMP280;6553;48.412;9.514;2022-10-16T13:51:32;71603.34;;;19.20
64600;BMP280;6553;48.412;9.514;2022-10-16T13:53:58;71595.03;;;19.20
64600;BMP280;6553;48.412;9.514;2022-10-16T13:56:32;71598.88;;;19.21
64600;BMP280;6553;48.412;9.514;2022-10-16T13:59:04;71601.09;;;19.20
64600;BMP280;6553;48.412;9.514;2022-10-16T14:01:41;71596.63;;;19.21
64600;BMP280;6553;48.412;9.514;2022-10-16T14:04:11;71599.94;;;19.22
64600;BMP280;6553;48.412;9.514;2022-10-16T14:06:45;71604.28;;;19.23
64600;BMP280;6553;48.412;9.514;2022-10-16T14:09:29;71603.22;;;19.22
64600;BMP280;6553;48.412;9.514;2022-10-16T14:12:06;71597.16;;;19.22
64600;BMP280;6553;48.412;9.514;2022-10-16T14:14:43;71608.22;;;19.22
64600;BMP280;6553;48.412;9.514;2022-10-16T14:17:20;71597.16;;;19.22
64600;BMP280;6553;48.412;9.514;2022-10-16T14:19:50;71599.94;;;19.22
64600;BMP280;6553;48.412;9.514;2022-10-16T14:22:37;71602.06;;;19.24
64600;BMP280;6553;48.412;9.514;2022-10-16T14:27:55;71601.00;;;19.23
64600;BMP280;6553;48.412;9.514;2022-10-16T14:30:23;71608.13;;;19.24
64600;BMP280;6553;48.412;9.514;2022-10-16T14:33:18;71602.06;;;19.24
64600;BMP280;6553;48.412;9.514;2022-10-16T14:35:46;71601.50;;;19.23
64600;BMP280;6553;48.412;9.514;2022-10-16T14:38:19;71601.50;;;19.23
64600;BMP280;6553;48.412;9.514;2022-10-16T14:40:50;71600.47;;;19.22
64600;BMP280;6553;48.412;9.514;2022-10-16T14:43:22;71604.28;;;19.23
64600;BMP280;6553;48.412;9.514;2022-10-16T14:45:55;71604.28;;;19.23
64600;BMP280;6553;48.412;9.514;2022-10-16T14:48:22;71607.03;;;19.23
64600;BMP280;6553;48.412;9.514;2022-10-16T14:50:48;71588.22;;;19.11
64600;BMP280;6553;48.412;9.514;2022-10-16T14:53:14;71605.25;;;19.27
64600;BMP280;6553;48.412;9.514;2022-10-16T14:55:41;71608.00;;;19.27
64600;BMP280;6553;48.412;9.514;2022-10-16T14:58:20;71605.25;;;19.27
64600;BMP280;6553;48.412;9.514;2022-10-16T15:00:47;71594.22;;;19.14
64600;BMP280;6553;48.412;9.514;2022-10-16T15:03:14;71601.00;;;19.23
64600;BMP280;6553;48.412;9.514;2022-10-16T15:05:39;71601.50;;;19.23
64600;BMP280;6553;48.412;9.514;2022-10-16T15:08:05;71596.63;;;19.21
64600;BMP280;6553;48.412;9.514;2022-10-16T15:10:38;71603.75;;;19.23
64600;BMP280;6553;48.412;9.514;2022-10-16T15:13:04;71597.69;;;19.22
64600;BMP280;6553;48.412;9.514;2022-10-16T15:15:47;71603.63;;;19.25
64600;BMP280;6553;48.412;9.514;2022-10-16T15:18:14;71603.75;;;19.23
64600;BMP280;6553;48.412;9.514;2022-10-16T15:20:50;71604.81;;;19.24
64600;BMP280;6553;48.412;9.514;2022-10-16T15:23:20;71600.34;;;19.25
64600;BMP280;6553;48.412;9.514;2022-10-16T15:25:52;71602.06;;;19.24
64600;BMP280;6553;48.412;9.514;2022-10-16T15:28:21;71602.59;;;19.24
64600;BMP280;6553;48.412;9.514;2022-10-16T15:30:50;71605.88;;;19.25
64600;BMP280;6553;48.412;9.514;2022-10-16T15:33:21;71602.06;;;19.24
64600;BMP280;6553;48.412;9.514;2022-10-16T15:35:52;71602.06;;;19.24
64600;BMP280;6553;48.412;9.514;2022-10-16T15:38:21;71602.59;;;19.24
64600;BMP280;6553;48.412;9.514;2022-10-16T15:40:48;71602.06;;;19.24
64600;BMP280;6553;48.412;9.514;2022-10-16T15:43:14;71599.81;;;19.24
64600;BMP280;6553;48.412;9.514;2022-10-16T15:45:40;71598.22;;;19.23
64600;BMP280;6553;48.412;9.514;2022-10-16T15:48:08;71596.53;;;19.24
64600;BMP280;6553;48.412;9.514;2022-10-16T15:50:38;71597.06;;;19.24
64600;BMP280;6553;48.412;9.514;2022-10-16T15:53:04;71601.50;;;19.23
64600;BMP280;6553;48.412;9.514;2022-10-16T15:55:29;71602.06;;;19.24
64600;BMP280;6553;48.412;9.514;2022-10-16T15:57:55;71620.88;;;19.23
64600;BMP280;6553;48.412;9.514;2022-10-16T16:00:21;71596.09;;;19.21
64600;BMP280;6553;48.412;9.514;2022-10-16T16:02:53;71601.50;;;19.23
64600;BMP280;6553;48.412;9.514;2022-10-16T16:05:21;71603.09;;;19.25
64600;BMP280;6553;48.412;9.514;2022-10-16T16:07:47;71603.22;;;19.22